sensor_id;sensor_type;location;lat;lon;timestamp;P1;durP1;ratioP1;P2;durP2;ratioP2
6033;SDS011;3045;43.226;27.858;2023-04-03T00:02:00;6.97;;;6.50;;
6033;SDS011;3045;43.226;27.858;2023-04-03T00:04:28;6.93;;;6.53;;
6033;SDS011;3045;43.226;27.858;2023-04-03T00:06:56;6.60;;;6.10;;
6033;SDS011;3045;43.226;27.858;2023-04-03T00:09:23;7.17;;;6.53;;
6033;SDS011;3045;43.226;27.858;2023-04-03T00:11:51;7.00;;;6.60;;
6033;SDS011;3045;43.226;27.858;2023-04-03T00:14:18;7.40;;;6.80;;
6033;SDS011;3045;43.226;27.858;2023-04-03T00:16:45;6.67;;;6.33;;
6033;SDS011;3045;43.226;27.858;2023-04-03T00:19:12;9.27;;;6.63;;
6033;SDS011;3045;43.226;27.858;2023-04-03T00:21:39;13.10;;;6.17;;
6033;SDS011;3045;43.226;27.858;2023-04-03T00:24:08;6.10;;;5.80;;
6033;SDS011;3045;43.226;27.858;2023-04-03T00:26:35;5.67;;;5.37;;
6033;SDS011;3045;43.226;27.858;2023-04-03T00:29:04;5.17;;;4.83;;
6033;SDS011;3045;43.226;27.858;2023-04-03T00:31:31;6.00;;;5.33;;
6033;SDS011;3045;43.226;27.858;2023-04-03T00:33:58;6.43;;;5.93;;
6033;SDS011;3045;43.226;27.858;2023-04-03T00:36:25;6.50;;;5.70;;
6033;SDS011;3045;43.226;27.858;2023-04-03T00:38:53;8.23;;;6.13;;
6033;SDS011;3045;43.226;27.858;2023-04-03T00:41:22;9.20;;;5.87;;
6033;SDS011;3045;43.226;27.858;2023-04-03T00:43:49;9.10;;;6.00;;
6033;SDS011;3045;43.226;27.858;2023-04-03T00:46:16;7.43;;;6.83;;
6033;SDS011;3045;43.226;27.858;2023-04-03T00:48:43;7.80;;;6.80;;
6033;SDS011;3045;43.226;27.858;2023-04-03T00:51:13;10.63;;;6.67;;
6033;SDS011;3045;43.226;27.858;2023-04-03T00:53:44;7.00;;;6.37;;
6033;SDS011;3045;43.226;27.858;2023-04-03T00:56:15;8.80;;;6.87;;
6033;SDS011;3045;43.226;27.858;2023-04-03T00:58:46;7.37;;;6.80;;
6033;SDS011;3045;43.226;27.858;2023-04-03T01:01:18;6.73;;;6.20;;
6033;SDS011;3045;43.226;27.858;2023-04-03T01:03:49;8.27;;;7.07;;
6033;SDS011;3045;43.226;27.858;2023-04-03T01:06:17;10.10;;;8.13;;
6033;SDS011;3045;43.226;27.858;2023-04-03T01:08:49;8.50;;;7.80;;
6033;SDS011;3045;43.226;27.858;2023-04-03T01:11:17;9.20;;;7.13;;
6033;SDS011;3045;43.226;27.858;2023-04-03T01:13:48;8.07;;;7.23;;
6033;SDS011;3045;43.226;27.858;2023-04-03T01:16:15;8.13;;;7.63;;
6033;SDS011;3045;43.226;27.858;2023-04-03T01:18:42;12.17;;;7.47;;
6033;SDS011;3045;43.226;27.858;2023-04-03T01:24:16;8.77;;;8.07;;
6033;SDS011;3045;43.226;27.858;2023-04-03T01:27:01;8.93;;;8.03;;
6033;SDS011;3045;43.226;27.858;2023-04-03T01:29:32;9.77;;;8.73;;
6033;SDS011;3045;43.226;27.858;2023-04-03T01:32:01;10.13;;;9.17;;
6033;SDS011;3045;43.226;27.858;2023-04-03T01:34:30;9.47;;;8.50;;
6033;SDS011;3045;43.226;27.858;2023-04-03T01:36:58;9.10;;;8.30;;
6033;SDS011;3045;43.226;27.858;2023-04-03T01:39:25;9.63;;;8.63;;
6033;SDS011;3045;43.226;27.858;2023-04-03T01:41:52;13.77;;;9.73;;
6033;SDS011;3045;43.226;27.858;2023-04-03T01:44:19;9.80;;;8.97;;
6033;SDS011;3045;43.226;27.858;2023-04-03T01:46:46;11.53;;;9.23;;
6033;SDS011;3045;43.226;27.858;2023-04-03T01:49:15;9.33;;;8.53;;
6033;SDS011;3045;43.226;27.858;2023-04-03T01:51:42;9.80;;;8.90;;
6033;SDS011;3045;43.226;27.858;2023-04-03T01:54:09;9.73;;;8.87;;
6033;SDS011;3045;43.226;27.858;2023-04-03T01:56:36;9.53;;;8.57;;
6033;SDS011;3045;43.226;27.858;2023-04-03T01:59:04;12.50;;;9.63;;
6033;SDS011;3045;43.226;27.858;2023-04-03T02:01:31;18.20;;;10.13;;
6033;SDS011;3045;43.226;27.858;2023-04-03T02:03:58;22.20;;;13.90;;
6033;SDS011;3045;43.226;27.858;2023-04-03T02:06:27;24.30;;;15.60;;
6033;SDS011;3045;43.226;27.858;2023-04-03T02:08:54;25.93;;;15.97;;
6033;SDS011;3045;43.226;27.858;2023-04-03T02:11:21;21.23;;;15.03;;
6033;SDS011;3045;43.226;27.858;2023-04-03T02:13:48;15.07;;;13.43;;
6033;SDS011;3045;43.226;27.858;2023-04-03T02:16:15;13.70;;;12.53;;
6033;SDS011;3045;43.226;27.858;2023-04-03T02:18:42;27.83;;;15.33;;
6033;SDS011;3045;43.226;27.858;2023-04-03T02:21:09;23.53;;;15.23;;
6033;SDS011;3045;43.226;27.858;2023-04-03T02:23:38;23.87;;;16.67;;
6033;SDS011;3045;43.226;27.858;2023-04-03T02:26:06;30.57;;;19.50;;
6033;SDS011;3045;43.226;27.858;2023-04-03T02:28:34;42.17;;;23.20;;
6033;SDS011;3045;43.226;27.858;2023-04-03T02:31:02;31.03;;;22.70;;
6033;SDS011;3045;43.226;27.858;2023-04-03T02:33:31;43.43;;;25.57;;
6033;SDS011;3045;43.226;27.858;2023-04-03T02:35:58;44.60;;;25.23;;
6033;SDS011;3045;43.226;27.858;2023-04-03T02:38:26;37.83;;;24.33;;
6033;SDS011;3045;43.226;27.858;2023-04-03T02:40:57;39.37;;;25.10;;
6033;SDS011;3045;43.226;27.858;2023-04-03T02:43:26;46.20;;;25.03;;
6033;SDS011;3045;43.226;27.858;2023-04-03T02:45:53;32.57;;;23.80;;
6033;SDS011;3045;43.226;27.858;2023-04-03T02:48:21;33.13;;;22.87;;
6033;SDS011;3045;43.226;27.858;2023-04-03T02:50:48;34.97;;;22.07;;
6033;SDS011;3045;43.226;27.858;2023-04-03T02:53:15;31.40;;;23.63;;
6033;SDS011;3045;43.226;27.858;2023-04-03T02:55:42;32.80;;;24.50;;
6033;SDS011;3045;43.226;27.858;2023-04-03T02:58:10;42.43;;;24.13;;
6033;SDS011;3045;43.226;27.858;2023-04-03T03:00:38;27.57;;;22.23;;
6033;SDS011;3045;43.226;27.858;2023-04-03T03:03:05;34.57;;;20.57;;
6033;SDS011;3045;43.226;27.858;2023-04-03T03:05:33;27.37;;;18.53;;
6033;SDS011;3045;43.226;27.858;2023-04-03T03:08:01;27.10;;;19.80;;
6033;SDS011;3045;43.226;27.858;2023-04-03T03:10:28;23.40;;;18.13;;
6033;SDS011;3045;43.226;27.858;2023-04-03T03:12:56;23.87;;;16.83;;
6033;SDS011;3045;43.226;27.858;2023-04-03T03:15:24;22.23;;;13.77;;
6033;SDS011;3045;43.226;27.858;2023-04-03T03:17:51;18.90;;;14.87;;
6033;SDS011;3045;43.226;27.858;2023-04-03T03:20:18;11.17;;;10.30;;
6033;SDS011;3045;43.226;27.858;2023-04-03T03:22:46;11.53;;;10.30;;
6033;SDS011;3045;43.226;27.858;2023-04-03T03:25:13;11.10;;;10.10;;
6033;SDS011;3045;43.226;27.858;2023-04-03T03:27:40;10.40;;;9.27;;
6033;SDS011;3045;43.226;27.858;2023-04-03T03:30:07;10.60;;;9.30;;
6033;SDS011;3045;43.226;27.858;2023-04-03T03:32:37;24.47;;;13.63;;
6033;SDS011;3045;43.226;27.858;2023-04-03T03:35:04;13.20;;;11.80;;
6033;SDS011;3045;43.226;27.858;2023-04-03T03:37:31;21.50;;;13.67;;
6033;SDS011;3045;43.226;27.858;2023-04-03T03:39:58;23.07;;;16.80;;
6033;SDS011;3045;43.226;27.858;2023-04-03T03:42:25;19.60;;;17.27;;
6033;SDS011;3045;43.226;27.858;2023-04-03T03:44:52;20.40;;;18.20;;
6033;SDS011;3045;43.226;27.858;2023-04-03T03:47:20;26.27;;;17.93;;
6033;SDS011;3045;43.226;27.858;2023-04-03T03:49:48;38.77;;;18.57;;
6033;SDS011;3045;43.226;27.858;2023-04-03T03:52:15;31.20;;;19.67;;
6033;SDS011;3045;43.226;27.858;2023-04-03T03:54:43;32.53;;;19.40;;
6033;SDS011;3045;43.226;27.858;2023-04-03T03:57:10;27.83;;;18.57;;
6033;SDS011;3045;43.226;27.858;2023-04-03T03:59:37;23.17;;;17.00;;
6033;SDS011;3045;43.226;27.858;2023-04-03T04:02:06;31.70;;;19.20;;
6033;SDS011;3045;43.226;27.858;2023-04-03T04:04:33;35.77;;;19.03;;
6033;SDS011;3045;43.226;27.858;2023-04-03T04:07:01;32.60;;;20.53;;
6033;SDS011;3045;43.226;27.858;2023-04-03T04:09:28;23.80;;;19.20;;
6033;SDS011;3045;43.226;27.858;2023-04-03T04:11:55;21.10;;;18.00;;
6033;SDS011;3045;43.226;27.858;2023-04-03T04:14:23;19.90;;;17.90;;
6033;SDS011;3045;43.226;27.858;2023-04-03T04:16:50;21.97;;;17.47;;
6033;SDS011;3045;43.226;27.858;2023-04-03T04:19:17;16.33;;;14.63;;
6033;SDS011;3045;43.226;27.858;2023-04-03T04:21:44;18.90;;;14.00;;
6033;SDS011;3045;43.226;27.858;2023-04-03T04:24:13;15.10;;;13.87;;
6033;SDS011;3045;43.226;27.858;2023-04-03T04:26:40;17.90;;;14.00;;
6033;SDS011;3045;43.226;27.858;2023-04-03T04:29:08;14.30;;;13.10;;
6033;SDS011;3045;43.226;27.858;2023-04-03T04:31:35;13.30;;;12.10;;
6033;SDS011;3045;43.226;27.858;2023-04-03T04:34:03;14.27;;;11.73;;
6033;SDS011;3045;43.226;27.858;2023-04-03T04:36:30;11.67;;;10.53;;
6033;SDS011;3045;43.226;27.858;2023-04-03T04:38:57;11.50;;;10.50;;
6033;SDS011;3045;43.226;27.858;2023-04-03T04:41:26;11.17;;;9.73;;
6033;SDS011;3045;43.226;27.858;2023-04-03T04:43:53;9.57;;;8.90;;
6033;SDS011;3045;43.226;27.858;2023-04-03T04:46:20;9.87;;;8.30;;
6033;SDS011;3045;43.226;27.858;2023-04-03T04:48:47;14.73;;;8.83;;
6033;SDS011;3045;43.226;27.858;2023-04-03T04:51:15;14.60;;;8.33;;
6033;SDS011;3045;43.226;27.858;2023-04-03T04:53:42;9.00;;;7.47;;
6033;SDS011;3045;43.226;27.858;2023-04-03T04:56:09;8.77;;;6.80;;
6033;SDS011;3045;43.226;27.858;2023-04-03T04:58:38;7.97;;;7.43;;
6033;SDS011;3045;43.226;27.858;2023-04-03T05:01:06;7.20;;;6.33;;
6033;SDS011;3045;43.226;27.858;2023-04-03T05:03:34;7.67;;;5.50;;
6033;SDS011;3045;43.226;27.858;2023-04-03T05:06:01;5.53;;;4.63;;
6033;SDS011;3045;43.226;27.858;2023-04-03T05:08:29;5.80;;;4.60;;
6033;SDS011;3045;43.226;27.858;2023-04-03T05:10:56;4.50;;;3.93;;
6033;SDS011;3045;43.226;27.858;2023-04-03T05:13:25;18.00;;;6.07;;
6033;SDS011;3045;43.226;27.858;2023-04-03T05:15:53;29.43;;;5.80;;
6033;SDS011;3045;43.226;27.858;2023-04-03T05:18:20;9.27;;;4.80;;
6033;SDS011;3045;43.226;27.858;2023-04-03T05:20:48;45.57;;;14.03;;
6033;SDS011;3045;43.226;27.858;2023-04-03T05:23:15;38.43;;;15.43;;
6033;SDS011;3045;43.226;27.858;2023-04-03T05:25:43;55.73;;;17.43;;
6033;SDS011;3045;43.226;27.858;2023-04-03T05:28:10;19.97;;;10.90;;
6033;SDS011;3045;43.226;27.858;2023-04-03T05:30:37;36.13;;;11.83;;
6033;SDS011;3045;43.226;27.858;2023-04-03T05:33:06;37.53;;;11.80;;
6033;SDS011;3045;43.226;27.858;2023-04-03T05:35:35;10.80;;;8.03;;
6033;SDS011;3045;43.226;27.858;2023-04-03T05:38:04;10.37;;;7.83;;
6033;SDS011;3045;43.226;27.858;2023-04-03T05:40:33;13.90;;;9.90;;
6033;SDS011;3045;43.226;27.858;2023-04-03T05:43:01;16.83;;;10.10;;
6033;SDS011;3045;43.226;27.858;2023-04-03T05:45:28;19.17;;;9.87;;
6033;SDS011;3045;43.226;27.858;2023-04-03T05:47:55;25.13;;;9.40;;
6033;SDS011;3045;43.226;27.858;2023-04-03T05:50:24;13.13;;;8.50;;
6033;SDS011;3045;43.226;27.858;2023-04-03T05:52:51;11.77;;;9.03;;
6033;SDS011;3045;43.226;27.858;2023-04-03T05:55:21;7.40;;;6.63;;
6033;SDS011;3045;43.226;27.858;2023-04-03T05:57:51;10.20;;;7.00;;
6033;SDS011;3045;43.226;27.858;2023-04-03T06:00:19;7.70;;;6.17;;
6033;SDS011;3045;43.226;27.858;2023-04-03T06:02:46;8.80;;;6.03;;
6033;SDS011;3045;43.226;27.858;2023-04-03T06:05:13;12.03;;;5.20;;
6033;SDS011;3045;43.226;27.858;2023-04-03T06:07:42;14.13;;;6.23;;
6033;SDS011;3045;43.226;27.858;2023-04-03T06:10:10;2.63;;;2.43;;
6033;SDS011;3045;43.226;27.858;2023-04-03T06:12:38;3.20;;;2.10;;
6033;SDS011;3045;43.226;27.858;2023-04-03T06:15:05;5.03;;;3.17;;
6033;SDS011;3045;43.226;27.858;2023-04-03T06:17:35;2.23;;;2.03;;
6033;SDS011;3045;43.226;27.858;2023-04-03T06:20:02;2.57;;;2.23;;
6033;SDS011;3045;43.226;27.858;2023-04-03T06:22:30;6.30;;;2.97;;
6033;SDS011;3045;43.226;27.858;2023-04-03T06:24:58;7.70;;;4.00;;
6033;SDS011;3045;43.226;27.858;2023-04-03T06:27:26;2.90;;;2.03;;
6033;SDS011;3045;43.226;27.858;2023-04-03T06:29:53;2.37;;;2.20;;
6033;SDS011;3045;43.226;27.858;2023-04-03T06:32:20;2.00;;;1.90;;
6033;SDS011;3045;43.226;27.858;2023-04-03T06:34:47;2.10;;;2.00;;
6033;SDS011;3045;43.226;27.858;2023-04-03T06:37:14;6.30;;;3.13;;
6033;SDS011;3045;43.226;27.858;2023-04-03T06:39:42;3.10;;;2.90;;
6033;SDS011;3045;43.226;27.858;2023-04-03T06:42:11;2.37;;;2.10;;
6033;SDS011;3045;43.226;27.858;2023-04-03T06:44:39;2.03;;;1.93;;
6033;SDS011;3045;43.226;27.858;2023-04-03T06:47:06;4.53;;;2.45;;
6033;SDS011;3045;43.226;27.858;2023-04-03T06:49:35;4.05;;;2.17;;
6033;SDS011;3045;43.226;27.858;2023-04-03T06:52:04;3.50;;;1.80;;
6033;SDS011;3045;43.226;27.858;2023-04-03T06:54:32;2.80;;;2.60;;
6033;SDS011;3045;43.226;27.858;2023-04-03T06:56:59;3.28;;;2.83;;
6033;SDS011;3045;43.226;27.858;2023-04-03T06:59:28;1.98;;;1.70;;
6033;SDS011;3045;43.226;27.858;2023-04-03T07:01:58;1.67;;;1.65;;
6033;SDS011;3045;43.226;27.858;2023-04-03T07:04:28;1.98;;;1.70;;
6033;SDS011;3045;43.226;27.858;2023-04-03T07:06:55;2.03;;;1.67;;
6033;SDS011;3045;43.226;27.858;2023-04-03T07:09:22;1.80;;;1.80;;
6033;SDS011;3045;43.226;27.858;2023-04-03T07:11:50;2.10;;;1.98;;
6033;SDS011;3045;43.226;27.858;2023-04-03T07:14:18;2.15;;;2.00;;
6033;SDS011;3045;43.226;27.858;2023-04-03T07:16:47;2.10;;;1.90;;
6033;SDS011;3045;43.226;27.858;2023-04-03T07:19:14;2.10;;;2.00;;
6033;SDS011;3045;43.226;27.858;2023-04-03T07:21:43;2.25;;;1.67;;
6033;SDS011;3045;43.226;27.858;2023-04-03T07:24:11;2.05;;;1.95;;
6033;SDS011;3045;43.226;27.858;2023-04-03T07:26:38;2.42;;;2.17;;
6033;SDS011;3045;43.226;27.858;2023-04-03T07:29:06;3.17;;;2.93;;
6033;SDS011;3045;43.226;27.858;2023-04-03T07:31:36;3.10;;;3.00;;
6033;SDS011;3045;43.226;27.858;2023-04-03T07:34:08;4.43;;;3.63;;
6033;SDS011;3045;43.226;27.858;2023-04-03T07:36:35;3.80;;;3.60;;
6033;SDS011;3045;43.226;27.858;2023-04-03T07:39:02;4.27;;;4.00;;
6033;SDS011;3045;43.226;27.858;2023-04-03T07:41:30;4.03;;;3.70;;
6033;SDS011;3045;43.226;27.858;2023-04-03T07:43:57;8.40;;;3.30;;
6033;SDS011;3045;43.226;27.858;2023-04-03T07:46:24;4.70;;;2.77;;
6033;SDS011;3045;43.226;27.858;2023-04-03T07:48:51;5.50;;;3.10;;
6033;SDS011;3045;43.226;27.858;2023-04-03T07:51:20;3.33;;;3.13;;
6033;SDS011;3045;43.226;27.858;2023-04-03T07:53:47;6.10;;;3.20;;
6033;SDS011;3045;43.226;27.858;2023-04-03T07:56:15;3.77;;;3.53;;
6033;SDS011;3045;43.226;27.858;2023-04-03T07:58:43;5.37;;;3.40;;
6033;SDS011;3045;43.226;27.858;2023-04-03T08:01:10;5.90;;;3.70;;
6033;SDS011;3045;43.226;27.858;2023-04-03T08:03:37;3.47;;;3.27;;
6033;SDS011;3045;43.226;27.858;2023-04-03T08:06:06;4.60;;;4.30;;
6033;SDS011;3045;43.226;27.858;2023-04-03T08:08:35;5.77;;;4.10;;
6033;SDS011;3045;43.226;27.858;2023-04-03T08:11:02;3.67;;;3.47;;
6033;SDS011;3045;43.226;27.858;2023-04-03T08:13:31;3.40;;;3.10;;
6033;SDS011;3045;43.226;27.858;2023-04-03T08:16:06;50.00;;;6.40;;
6033;SDS011;3045;43.226;27.858;2023-04-03T08:18:35;7.77;;;4.47;;
6033;SDS011;3045;43.226;27.858;2023-04-03T08:21:05;7.20;;;3.60;;
6033;SDS011;3045;43.226;27.858;2023-04-03T08:23:32;3.93;;;2.90;;
6033;SDS011;3045;43.226;27.858;2023-04-03T08:26:06;3.77;;;3.50;;
6033;SDS011;3045;43.226;27.858;2023-04-03T08:28:34;8.47;;;4.60;;
6033;SDS011;3045;43.226;27.858;2023-04-03T08:31:04;4.20;;;3.90;;
6033;SDS011;3045;43.226;27.858;2023-04-03T08:33:33;6.47;;;4.70;;
6033;SDS011;3045;43.226;27.858;2023-04-03T08:36:01;4.13;;;3.73;;
6033;SDS011;3045;43.226;27.858;2023-04-03T08:38:29;5.13;;;4.10;;
6033;SDS011;3045;43.226;27.858;2023-04-03T08:41:00;4.23;;;4.00;;
6033;SDS011;3045;43.226;27.858;2023-04-03T08:43:34;6.60;;;4.90;;
6033;SDS011;3045;43.226;27.858;2023-04-03T08:46:10;4.47;;;4.17;;
6033;SDS011;3045;43.226;27.858;2023-04-03T08:48:41;4.73;;;4.43;;
6033;SDS011;3045;43.226;27.858;2023-04-03T08:51:10;4.80;;;4.53;;
6033;SDS011;3045;43.226;27.858;2023-04-03T08:53:42;10.43;;;5.10;;
6033;SDS011;3045;43.226;27.858;2023-04-03T08:56:13;8.83;;;4.97;;
6033;SDS011;3045;43.226;27.858;2023-04-03T08:58:47;5.30;;;4.80;;
6033;SDS011;3045;43.226;27.858;2023-04-03T09:01:19;5.57;;;5.17;;
6033;SDS011;3045;43.226;27.858;2023-04-03T09:03:49;5.20;;;4.70;;
6033;SDS011;3045;43.226;27.858;2023-04-03T09:06:18;7.90;;;5.33;;
6033;SDS011;3045;43.226;27.858;2023-04-03T09:08:49;6.10;;;5.50;;
6033;SDS011;3045;43.226;27.858;2023-04-03T09:11:24;6.03;;;5.53;;
6033;SDS011;3045;43.226;27.858;2023-04-03T09:13:57;5.50;;;5.20;;
6033;SDS011;3045;43.226;27.858;2023-04-03T09:16:31;5.30;;;5.10;;
6033;SDS011;3045;43.226;27.858;2023-04-03T09:19:11;4.73;;;4.43;;
6033;SDS011;3045;43.226;27.858;2023-04-03T09:21:45;5.67;;;5.07;;
6033;SDS011;3045;43.226;27.858;2023-04-03T09:24:13;3.87;;;3.73;;
6033;SDS011;3045;43.226;27.858;2023-04-03T09:26:44;5.10;;;4.70;;
6033;SDS011;3045;43.226;27.858;2023-04-03T09:29:17;5.53;;;5.13;;
6033;SDS011;3045;43.226;27.858;2023-04-03T09:31:48;7.30;;;4.67;;
6033;SDS011;3045;43.226;27.858;2023-04-03T09:34:20;5.33;;;5.03;;
6033;SDS011;3045;43.226;27.858;2023-04-03T09:36:51;5.80;;;5.40;;
6033;SDS011;3045;43.226;27.858;2023-04-03T09:39:20;5.90;;;5.40;;
6033;SDS011;3045;43.226;27.858;2023-04-03T09:41:56;6.07;;;5.37;;
6033;SDS011;3045;43.226;27.858;2023-04-03T09:44:28;6.53;;;6.07;;
6033;SDS011;3045;43.226;27.858;2023-04-03T09:46:57;7.17;;;6.17;;
6033;SDS011;3045;43.226;27.858;2023-04-03T09:49:24;6.93;;;6.43;;
6033;SDS011;3045;43.226;27.858;2023-04-03T09:51:52;7.20;;;6.67;;
6033;SDS011;3045;43.226;27.858;2023-04-03T09:54:33;8.13;;;5.93;;
6033;SDS011;3045;43.226;27.858;2023-04-03T09:57:07;7.13;;;6.50;;
6033;SDS011;3045;43.226;27.858;2023-04-03T09:59:40;10.40;;;6.83;;
6033;SDS011;3045;43.226;27.858;2023-04-03T10:02:22;10.23;;;6.83;;
6033;SDS011;3045;43.226;27.858;2023-04-03T10:04:57;9.20;;;6.60;;
6033;SDS011;3045;43.226;27.858;2023-04-03T10:07:28;6.20;;;5.90;;
6033;SDS011;3045;43.226;27.858;2023-04-03T10:09:58;8.23;;;6.90;;
6033;SDS011;3045;43.226;27.858;2023-04-03T10:12:26;7.13;;;6.63;;
6033;SDS011;3045;43.226;27.858;2023-04-03T10:14:56;11.73;;;7.00;;
6033;SDS011;3045;43.226;27.858;2023-04-03T10:17:26;6.70;;;6.10;;
6033;SDS011;3045;43.226;27.858;2023-04-03T10:20:06;7.30;;;6.90;;
6033;SDS011;3045;43.226;27.858;2023-04-03T10:22:47;7.67;;;7.20;;
6033;SDS011;3045;43.226;27.858;2023-04-03T10:25:25;7.00;;;6.43;;
6033;SDS011;3045;43.226;27.858;2023-04-03T10:27:58;6.43;;;6.03;;
6033;SDS011;3045;43.226;27.858;2023-04-03T10:30:31;7.03;;;6.47;;
6033;SDS011;3045;43.226;27.858;2023-04-03T10:33:10;7.20;;;6.50;;
6033;SDS011;3045;43.226;27.858;2023-04-03T10:35:59;6.60;;;6.03;;
6033;SDS011;3045;43.226;27.858;2023-04-03T10:38:39;6.33;;;5.77;;
6033;SDS011;3045;43.226;27.858;2023-04-03T10:41:17;5.53;;;5.23;;
6033;SDS011;3045;43.226;27.858;2023-04-03T10:43:53;5.63;;;5.30;;
6033;SDS011;3045;43.226;27.858;2023-04-03T10:46:32;4.70;;;4.30;;
6033;SDS011;3045;43.226;27.858;2023-04-03T10:49:09;5.83;;;5.27;;
6033;SDS011;3045;43.226;27.858;2023-04-03T10:51:46;6.27;;;5.77;;
6033;SDS011;3045;43.226;27.858;2023-04-03T10:54:17;5.10;;;4.90;;
6033;SDS011;3045;43.226;27.858;2023-04-03T10:56:52;5.10;;;4.90;;
6033;SDS011;3045;43.226;27.858;2023-04-03T10:59:23;4.63;;;4.33;;
6033;SDS011;3045;43.226;27.858;2023-04-03T11:01:57;7.47;;;5.27;;
6033;SDS011;3045;43.226;27.858;2023-04-03T11:04:29;4.60;;;4.40;;
6033;SDS011;3045;43.226;27.858;2023-04-03T11:07:01;6.43;;;4.97;;
6033;SDS011;3045;43.226;27.858;2023-04-03T11:09:31;5.53;;;5.13;;
6033;SDS011;3045;43.226;27.858;2023-04-03T11:12:09;4.90;;;3.80;;
6033;SDS011;3045;43.226;27.858;2023-04-03T11:14:42;4.67;;;4.23;;
6033;SDS011;3045;43.226;27.858;2023-04-03T11:17:19;5.83;;;4.50;;
6033;SDS011;3045;43.226;27.858;2023-04-03T11:19:57;4.17;;;3.87;;
6033;SDS011;3045;43.226;27.858;2023-04-03T11:22:32;4.87;;;4.47;;
6033;SDS011;3045;43.226;27.858;2023-04-03T11:25:03;4.20;;;4.00;;
6033;SDS011;3045;43.226;27.858;2023-04-03T11:27:35;5.30;;;5.00;;
6033;SDS011;3045;43.226;27.858;2023-04-03T11:30:07;4.17;;;3.97;;
6033;SDS011;3045;43.226;27.858;2023-04-03T11:32:48;8.03;;;4.30;;
6033;SDS011;3045;43.226;27.858;2023-04-03T11:35:28;6.33;;;4.33;;
6033;SDS011;3045;43.226;27.858;2023-04-03T11:37:56;4.47;;;4.17;;
6033;SDS011;3045;43.226;27.858;2023-04-03T11:40:28;4.27;;;4.00;;
6033;SDS011;3045;43.226;27.858;2023-04-03T11:43:02;3.50;;;3.40;;
6033;SDS011;3045;43.226;27.858;2023-04-03T11:45:36;3.43;;;3.30;;
6033;SDS011;3045;43.226;27.858;2023-04-03T11:48:09;5.33;;;3.30;;
6033;SDS011;3045;43.226;27.858;2023-04-03T12:00:51;3.43;;;3.33;;
6033;SDS011;3045;43.226;27.858;2023-04-03T12:12:35;4.80;;;4.50;;
6033;SDS011;3045;43.226;27.858;2023-04-03T12:15:16;5.50;;;5.20;;
6033;SDS011;3045;43.226;27.858;2023-04-03T12:17:47;5.63;;;5.20;;
6033;SDS011;3045;43.226;27.858;2023-04-03T12:23:28;4.80;;;4.60;;
6033;SDS011;3045;43.226;27.858;2023-04-03T12:26:00;4.90;;;4.60;;
6033;SDS011;3045;43.226;27.858;2023-04-03T12:28:35;5.47;;;5.07;;
6033;SDS011;3045;43.226;27.858;2023-04-03T12:31:08;5.53;;;5.00;;
6033;SDS011;3045;43.226;27.858;2023-04-03T12:34:01;7.33;;;5.43;;
6033;SDS011;3045;43.226;27.858;2023-04-03T12:36:41;8.57;;;5.63;;
6033;SDS011;3045;43.226;27.858;2023-04-03T12:42:16;6.80;;;5.87;;
6033;SDS011;3045;43.226;27.858;2023-04-03T12:44:53;12.03;;;6.37;;
6033;SDS011;3045;43.226;27.858;2023-04-03T12:47:27;6.77;;;5.87;;
6033;SDS011;3045;43.226;27.858;2023-04-03T12:50:01;7.13;;;6.00;;
6033;SDS011;3045;43.226;27.858;2023-04-03T12:52:31;6.93;;;6.23;;
6033;SDS011;3045;43.226;27.858;2023-04-03T12:55:03;6.97;;;6.37;;
6033;SDS011;3045;43.226;27.858;2023-04-03T12:57:43;6.03;;;5.43;;
6033;SDS011;3045;43.226;27.858;2023-04-03T13:00:28;6.10;;;5.60;;
6033;SDS011;3045;43.226;27.858;2023-04-03T13:02:57;5.90;;;5.50;;
6033;SDS011;3045;43.226;27.858;2023-04-03T13:05:25;5.90;;;5.60;;
6033;SDS011;3045;43.226;27.858;2023-04-03T13:07:58;4.23;;;3.93;;
6033;SDS011;3045;43.226;27.858;2023-04-03T13:10:32;4.03;;;3.83;;
6033;SDS011;3045;43.226;27.858;2023-04-03T13:13:14;4.20;;;3.80;;
6033;SDS011;3045;43.226;27.858;2023-04-03T13:15:43;4.27;;;3.97;;
6033;SDS011;3045;43.226;27.858;2023-04-03T13:18:24;6.30;;;5.30;;
6033;SDS011;3045;43.226;27.858;2023-04-03T13:20:53;8.37;;;6.33;;
6033;SDS011;3045;43.226;27.858;2023-04-03T13:23:26;8.40;;;6.33;;
6033;SDS011;3045;43.226;27.858;2023-04-03T13:25:55;9.77;;;6.20;;
6033;SDS011;3045;43.226;27.858;2023-04-03T13:28:26;7.10;;;6.50;;
6033;SDS011;3045;43.226;27.858;2023-04-03T13:30:55;6.90;;;5.80;;
6033;SDS011;3045;43.226;27.858;2023-04-03T13:33:29;5.83;;;5.43;;
6033;SDS011;3045;43.226;27.858;2023-04-03T13:36:00;6.20;;;5.73;;
6033;SDS011;3045;43.226;27.858;2023-04-03T13:38:31;5.00;;;4.67;;
6033;SDS011;3045;43.226;27.858;2023-04-03T13:41:00;12.50;;;4.73;;
6033;SDS011;3045;43.226;27.858;2023-04-03T13:43:30;5.73;;;5.00;;
6033;SDS011;3045;43.226;27.858;2023-04-03T13:46:00;5.47;;;4.93;;
6033;SDS011;3045;43.226;27.858;2023-04-03T13:48:38;4.80;;;4.57;;
6033;SDS011;3045;43.226;27.858;2023-04-03T13:51:16;4.93;;;4.73;;
6033;SDS011;3045;43.226;27.858;2023-04-03T13:53:46;4.70;;;4.50;;
6033;SDS011;3045;43.226;27.858;2023-04-03T13:56:19;4.33;;;4.03;;
6033;SDS011;3045;43.226;27.858;2023-04-03T13:58:56;4.63;;;4.33;;
6033;SDS011;3045;43.226;27.858;2023-04-03T14:01:47;5.17;;;4.67;;
6033;SDS011;3045;43.226;27.858;2023-04-03T14:04:18;4.77;;;4.47;;
6033;SDS011;3045;43.226;27.858;2023-04-03T14:06:46;5.17;;;4.87;;
6033;SDS011;3045;43.226;27.858;2023-04-03T14:09:14;7.47;;;5.43;;
6033;SDS011;3045;43.226;27.858;2023-04-03T14:11:43;5.43;;;5.13;;
6033;SDS011;3045;43.226;27.858;2023-04-03T14:14:13;4.80;;;4.17;;
6033;SDS011;3045;43.226;27.858;2023-04-03T14:16:43;5.47;;;5.17;;
6033;SDS011;3045;43.226;27.858;2023-04-03T14:19:20;6.17;;;5.67;;
6033;SDS011;3045;43.226;27.858;2023-04-03T14:21:49;4.97;;;4.57;;
6033;SDS011;3045;43.226;27.858;2023-04-03T14:24:17;7.70;;;5.53;;
6033;SDS011;3045;43.226;27.858;2023-04-03T14:26:48;4.40;;;4.10;;
6033;SDS011;3045;43.226;27.858;2023-04-03T14:29:15;7.43;;;5.30;;
6033;SDS011;3045;43.226;27.858;2023-04-03T14:31:44;5.00;;;4.70;;
6033;SDS011;3045;43.226;27.858;2023-04-03T14:34:13;5.37;;;5.03;;
6033;SDS011;3045;43.226;27.858;2023-04-03T14:36:42;7.87;;;5.20;;
6033;SDS011;3045;43.226;27.858;2023-04-03T14:39:11;6.53;;;4.10;;
6033;SDS011;3045;43.226;27.858;2023-04-03T14:41:44;4.40;;;4.10;;
6033;SDS011;3045;43.226;27.858;2023-04-03T14:44:12;5.30;;;4.73;;
6033;SDS011;3045;43.226;27.858;2023-04-03T14:46:41;5.10;;;4.70;;
6033;SDS011;3045;43.226;27.858;2023-04-03T14:49:12;5.17;;;4.77;;
6033;SDS011;3045;43.226;27.858;2023-04-03T14:51:41;3.63;;;3.53;;
6033;SDS011;3045;43.226;27.858;2023-04-03T14:54:10;4.77;;;4.47;;
6033;SDS011;3045;43.226;27.858;2023-04-03T14:56:42;4.10;;;3.90;;
6033;SDS011;3045;43.226;27.858;2023-04-03T14:59:11;3.90;;;3.77;;
6033;SDS011;3045;43.226;27.858;2023-04-03T15:01:40;4.53;;;4.23;;
6033;SDS011;3045;43.226;27.858;2023-04-03T15:04:13;4.10;;;3.90;;
6033;SDS011;3045;43.226;27.858;2023-04-03T15:06:40;4.23;;;3.93;;
6033;SDS011;3045;43.226;27.858;2023-04-03T15:09:11;4.00;;;3.80;;
6033;SDS011;3045;43.226;27.858;2023-04-03T15:11:46;4.20;;;4.00;;
6033;SDS011;3045;43.226;27.858;2023-04-03T15:14:16;3.80;;;3.50;;
6033;SDS011;3045;43.226;27.858;2023-04-03T15:16:43;4.87;;;4.53;;
6033;SDS011;3045;43.226;27.858;2023-04-03T15:19:11;4.30;;;4.10;;
6033;SDS011;3045;43.226;27.858;2023-04-03T15:21:38;4.53;;;4.23;;
6033;SDS011;3045;43.226;27.858;2023-04-03T15:24:06;4.77;;;4.33;;
6033;SDS011;3045;43.226;27.858;2023-04-03T15:26:33;4.80;;;4.60;;
6033;SDS011;3045;43.226;27.858;2023-04-03T15:29:00;4.57;;;4.30;;
6033;SDS011;3045;43.226;27.858;2023-04-03T15:31:28;4.30;;;4.10;;
6033;SDS011;3045;43.226;27.858;2023-04-03T15:33:56;4.13;;;4.03;;
6033;SDS011;3045;43.226;27.858;2023-04-03T15:36:24;4.43;;;4.13;;
6033;SDS011;3045;43.226;27.858;2023-04-03T15:38:51;3.93;;;3.83;;
6033;SDS011;3045;43.226;27.858;2023-04-03T15:41:18;4.80;;;4.60;;